Big Horn, Wyoming
Current Conditions -  °F | °C
As of 6:53 AM on Thursday 27 Nov 2014 (Local Time) from KSHR Reporting Station
Broken Clouds Broken Clouds  
Wind Chill: 17°   Ceiling: 10000
Heat Index: 23°   Visibility: 10mi
Dew Point: 20°   Wind: 5mph
Humidity: 88%   Direction: 150°SSE
Pressure: 29.99"   Gusts: NA
Location:  44.68°N, 106.99°W
Report Text: KSHR 271353Z AUTO 15004KT 10SM BKN100 M05/M07 A2999 RMK AO2 SLP196 T10501067 TSNO
Loading
Personal Weather Stations






























Interactive Weather Map New forecast layout! Learn more

10-Day Weather Forecast

Advertisements
Track Severe Weather on mobile